13  °C
Temperature
7  °C
  Dewpoint
   Humidity
Temp | Dewpoint | Humidity
10  km/h
Wind Speed
6  mph
Wind Speed
5  kts
Wind Speed
110°
East South
East

Wind Speed
Partly Cloudy
Conditions
Pressure 1014.52 (hPa) - 29.96 (in)
Visibility 30.0 (mi) - 48.3 (km)

Current Conditions
CYYJ
Location 6km (3.2mi)
Metar :CYYJ 132200Z 11005KT 30SM FEW032 SCT056 BKN080 13/07 A2996 RMK CU2SC2AC3 SLP147
Sun 13th October 14:00 pm

Airport
  Metar Aviation API Data Provided by https://www.checkwx.com/ CSS/SVG/PHP scripts by weather34.com © 2015-2019